createdAt,value
2018-03-08T00:00:48.783Z,13.20
2018-03-08T00:03:17.774Z,12.30
2018-03-08T00:05:46.926Z,13.80
2018-03-08T00:08:16.641Z,13.10
2018-03-08T00:10:46.456Z,13.67
2018-03-08T00:13:16.149Z,13.90
2018-03-08T00:15:45.047Z,15.93
2018-03-08T00:18:13.999Z,16.13
2018-03-08T00:20:42.822Z,16.77
2018-03-08T00:23:11.880Z,22.03
2018-03-08T00:25:40.746Z,21.47
2018-03-08T00:28:10.335Z,17.50
2018-03-08T00:30:39.204Z,14.70
2018-03-08T00:33:08.835Z,15.13
2018-03-08T00:35:38.461Z,18.53
2018-03-08T00:38:07.298Z,18.87
2018-03-08T00:40:36.259Z,15.17
2018-03-08T00:43:05.145Z,11.83
2018-03-08T00:45:34.625Z,12.03
2018-03-08T00:48:04.710Z,10.10
2018-03-08T00:50:34.451Z,11.73
2018-03-08T00:53:03.318Z,10.90
2018-03-08T00:55:33.045Z,11.13
2018-03-08T00:58:02.564Z,10.57
2018-03-08T01:00:32.204Z,11.93
2018-03-08T01:03:00.989Z,13.40
2018-03-08T01:05:30.221Z,10.70
2018-03-08T01:07:59.335Z,11.50
2018-03-08T01:10:28.119Z,10.67
2018-03-08T01:12:57.011Z,10.87
2018-03-08T01:15:25.797Z,12.53
2018-03-08T01:17:54.744Z,12.77
2018-03-08T01:20:23.532Z,12.27
2018-03-08T01:22:52.320Z,12.73
2018-03-08T01:25:21.358Z,12.83
2018-03-08T01:27:50.403Z,12.63
2018-03-08T01:30:19.348Z,13.43
2018-03-08T01:32:48.903Z,15.40
2018-03-08T01:35:17.757Z,16.73
2018-03-08T01:37:46.779Z,17.37
2018-03-08T01:40:15.667Z,22.80
2018-03-08T01:42:45.308Z,27.20
2018-03-08T01:45:14.193Z,18.83
2018-03-08T01:47:43.786Z,21.07
2018-03-08T01:50:12.670Z,21.70
2018-03-08T01:52:41.523Z,20.70
2018-03-08T01:55:11.622Z,23.00
2018-03-08T01:57:40.379Z,22.37
2018-03-08T02:00:09.321Z,21.70
2018-03-08T02:02:38.163Z,18.80
2018-03-08T02:05:07.048Z,17.90
2018-03-08T02:07:35.818Z,16.97
2018-03-08T02:10:04.671Z,16.57
2018-03-08T02:12:34.422Z,15.90
2018-03-08T02:15:03.251Z,14.33
2018-03-08T02:17:32.087Z,15.20
2018-03-08T02:20:00.875Z,20.63
2018-03-08T02:22:29.838Z,43.00
2018-03-08T02:24:59.495Z,40.73
2018-03-08T02:27:28.295Z,54.00
2018-03-08T02:29:57.146Z,57.00
2018-03-08T02:32:25.950Z,38.53
2018-03-08T02:34:54.945Z,28.23
2018-03-08T02:37:23.811Z,23.27
2018-03-08T02:39:53.790Z,16.83
2018-03-08T02:42:22.837Z,16.67
2018-03-08T02:44:51.765Z,17.07
2018-03-08T02:47:20.827Z,17.83
2018-03-08T02:49:49.594Z,16.40
2018-03-08T02:52:19.410Z,15.87
2018-03-08T02:54:49.008Z,17.17
2018-03-08T02:57:17.842Z,15.57
2018-03-08T02:59:46.824Z,14.67
2018-03-08T03:02:15.735Z,16.03
2018-03-08T03:04:44.506Z,16.90
2018-03-08T03:07:13.276Z,15.97
2018-03-08T03:09:42.303Z,16.77
2018-03-08T03:12:11.050Z,15.87
2018-03-08T03:14:39.966Z,15.77
2018-03-08T03:17:09.036Z,15.90
2018-03-08T03:19:38.216Z,15.03
2018-03-08T03:22:06.983Z,16.03
2018-03-08T03:24:35.876Z,14.77
2018-03-08T03:27:04.720Z,20.40
2018-03-08T03:29:33.643Z,21.47
2018-03-08T03:32:02.439Z,22.73
2018-03-08T03:34:32.066Z,23.93
2018-03-08T03:37:00.851Z,24.73
2018-03-08T03:39:30.767Z,25.93
2018-03-08T03:41:59.925Z,26.97
2018-03-08T03:44:28.791Z,23.10
2018-03-08T03:46:57.796Z,20.03
2018-03-08T03:49:26.642Z,15.97
2018-03-08T03:51:55.453Z,16.67
2018-03-08T03:54:25.164Z,17.30
2018-03-08T03:56:54.749Z,17.60
2018-03-08T03:59:24.348Z,15.80
2018-03-08T04:01:53.171Z,16.40
2018-03-08T04:04:22.379Z,16.77
2018-03-08T04:06:51.226Z,17.47
2018-03-08T04:09:20.742Z,17.57
2018-03-08T04:11:50.019Z,16.73
2018-03-08T04:14:19.752Z,16.73
2018-03-08T04:16:48.610Z,15.33
2018-03-08T04:19:17.460Z,20.77
2018-03-08T04:21:46.292Z,15.97
2018-03-08T04:24:15.935Z,17.17
2018-03-08T04:26:44.797Z,15.03
2018-03-08T04:29:13.802Z,13.53
2018-03-08T04:31:43.567Z,13.37
2018-03-08T04:34:12.390Z,13.30
2018-03-08T04:36:41.276Z,16.17
2018-03-08T04:39:10.932Z,18.63
2018-03-08T04:41:39.812Z,15.50
2018-03-08T04:44:09.439Z,17.23
2018-03-08T04:46:38.403Z,13.60
2018-03-08T04:49:07.369Z,12.73
2018-03-08T04:51:36.198Z,13.70
2018-03-08T04:54:05.286Z,17.50
2018-03-08T04:56:34.887Z,17.90
2018-03-08T04:59:04.870Z,29.03
2018-03-08T05:01:33.706Z,18.77
2018-03-08T05:04:02.785Z,21.20
2018-03-08T05:06:31.913Z,23.03
2018-03-08T05:09:00.769Z,19.10
2018-03-08T05:11:30.587Z,18.67
2018-03-08T05:13:59.520Z,21.77
2018-03-08T05:16:28.351Z,23.90
2018-03-08T05:18:58.315Z,46.57
2018-03-08T05:21:27.576Z,52.40
2018-03-08T05:23:56.375Z,50.33
2018-03-08T05:26:25.381Z,27.93
2018-03-08T05:28:54.234Z,36.47
2018-03-08T05:31:23.114Z,47.23
2018-03-08T05:33:52.150Z,41.90
2018-03-08T05:36:21.017Z,38.20
2018-03-08T05:38:50.037Z,36.87
2018-03-08T05:41:19.085Z,32.80
2018-03-08T05:43:48.099Z,27.03
2018-03-08T05:46:17.006Z,23.50
2018-03-08T05:48:46.650Z,18.13
2018-03-08T05:51:15.720Z,22.60
2018-03-08T05:53:45.747Z,20.87
2018-03-08T05:56:14.622Z,24.70
2018-03-08T05:58:43.514Z,19.77
2018-03-08T06:01:18.535Z,18.53
2018-03-08T06:03:48.198Z,37.87
2018-03-08T06:06:17.078Z,30.17
2018-03-08T06:08:46.005Z,36.97
2018-03-08T06:11:14.906Z,29.50
2018-03-08T06:13:43.731Z,27.90
2018-03-08T06:16:12.574Z,21.10
2018-03-08T06:18:42.450Z,23.73
2018-03-08T06:21:11.246Z,20.27
2018-03-08T06:23:41.316Z,19.67
2018-03-08T06:26:11.411Z,20.93
2018-03-08T06:28:40.522Z,21.40
2018-03-08T06:31:10.049Z,19.60
2018-03-08T06:33:39.674Z,21.97
2018-03-08T06:36:08.843Z,20.47
2018-03-08T06:38:38.655Z,19.13
2018-03-08T06:41:07.517Z,18.40
2018-03-08T06:43:36.631Z,17.03
2018-03-08T06:46:05.535Z,19.93
2018-03-08T06:48:35.651Z,16.23
2018-03-08T06:51:05.279Z,17.27
2018-03-08T06:53:34.117Z,24.00
2018-03-08T06:56:02.943Z,19.47
2018-03-08T06:58:32.084Z,14.10
2018-03-08T07:01:01.242Z,44.33
2018-03-08T07:03:30.938Z,25.70
2018-03-08T07:05:59.823Z,36.10
2018-03-08T07:08:28.571Z,32.87
2018-03-08T07:10:57.419Z,40.80
2018-03-08T07:13:26.271Z,47.03
2018-03-08T07:15:55.246Z,48.47
2018-03-08T07:18:24.046Z,44.93
2018-03-08T07:20:52.915Z,38.40
2018-03-08T07:23:21.740Z,39.63
2018-03-08T07:25:50.621Z,47.23
2018-03-08T07:28:19.452Z,47.27
2018-03-08T07:30:48.454Z,36.33
2018-03-08T07:33:17.326Z,17.00
2018-03-08T07:35:46.175Z,12.23
2018-03-08T07:38:15.287Z,10.63
2018-03-08T07:40:44.379Z,12.93
2018-03-08T07:43:13.436Z,7.93
2018-03-08T07:45:42.623Z,8.33
2018-03-08T07:48:11.451Z,6.50
2018-03-08T07:50:40.392Z,9.00
2018-03-08T07:53:09.971Z,7.37
2018-03-08T07:55:38.823Z,7.13
2018-03-08T07:58:07.870Z,6.90
2018-03-08T08:00:37.962Z,7.40
2018-03-08T08:03:06.895Z,7.47
2018-03-08T08:05:48.470Z,8.73
2018-03-08T08:08:30.131Z,9.37
2018-03-08T08:11:00.252Z,8.67
2018-03-08T08:13:29.028Z,8.53
2018-03-08T08:15:57.903Z,7.60
2018-03-08T08:18:27.782Z,6.93
2018-03-08T08:20:56.742Z,5.80
2018-03-08T08:23:25.907Z,7.57
2018-03-08T08:25:54.791Z,6.80
2018-03-08T08:28:23.616Z,7.60
2018-03-08T08:30:52.484Z,8.90
2018-03-08T08:33:22.389Z,8.63
2018-03-08T08:35:51.271Z,9.40
2018-03-08T08:38:20.129Z,10.70
2018-03-08T08:40:48.959Z,13.13
2018-03-08T08:43:18.003Z,11.73
2018-03-08T08:45:46.889Z,10.07
2018-03-08T08:48:15.888Z,12.60
2018-03-08T08:50:45.587Z,10.77
2018-03-08T08:53:14.457Z,10.73
2018-03-08T08:55:43.289Z,16.07
2018-03-08T08:58:12.994Z,13.07
2018-03-08T09:00:42.006Z,12.43
2018-03-08T09:03:10.932Z,10.77
2018-03-08T09:05:40.702Z,11.43
2018-03-08T09:08:10.294Z,13.13
2018-03-08T09:10:39.182Z,14.17
2018-03-08T09:13:08.718Z,17.10
2018-03-08T09:15:37.723Z,18.93
2018-03-08T09:18:06.715Z,22.07
2018-03-08T09:20:35.615Z,25.70
2018-03-08T09:23:05.467Z,29.83
2018-03-08T09:25:34.236Z,21.13
2018-03-08T09:28:03.076Z,17.33
2018-03-08T09:30:31.951Z,16.40
2018-03-08T09:33:01.676Z,19.20
2018-03-08T09:35:31.011Z,83.50
2018-03-08T09:37:59.920Z,54.40
2018-03-08T09:40:28.713Z,230.43
2018-03-08T09:42:58.487Z,372.27
2018-03-08T09:45:27.618Z,254.00
2018-03-08T09:47:56.495Z,120.10
2018-03-08T09:50:26.003Z,124.57
2018-03-08T09:52:54.967Z,48.00
2018-03-08T09:55:24.074Z,31.50
2018-03-08T09:57:52.909Z,22.13
2018-03-08T10:00:21.723Z,24.47
2018-03-08T10:02:50.605Z,33.50
2018-03-08T10:05:19.499Z,23.50
2018-03-08T10:07:49.112Z,10.57
2018-03-08T10:10:18.889Z,9.50
2018-03-08T10:12:47.712Z,5.03
2018-03-08T10:15:16.665Z,5.10
2018-03-08T10:17:45.796Z,3.73
2018-03-08T10:20:15.367Z,2.80
2018-03-08T10:22:44.196Z,4.20
2018-03-08T10:25:13.475Z,4.00
2018-03-08T10:27:42.466Z,6.30
2018-03-08T10:30:11.288Z,13.10
2018-03-08T10:32:40.123Z,11.47
2018-03-08T10:35:09.644Z,14.63
2018-03-08T10:37:39.256Z,15.77
2018-03-08T10:40:08.118Z,9.83
2018-03-08T10:45:06.032Z,9.07
2018-03-08T10:47:35.866Z,8.20
2018-03-08T10:50:05.553Z,9.63
2018-03-08T10:52:34.553Z,9.47
2018-03-08T10:55:03.429Z,17.27
2018-03-08T10:57:32.763Z,13.57
2018-03-08T11:00:03.170Z,12.30
2018-03-08T11:02:35.197Z,8.37
2018-03-08T11:05:04.481Z,7.47
2018-03-08T11:07:33.696Z,9.57
2018-03-08T11:10:03.828Z,14.33
2018-03-08T11:12:34.399Z,15.63
2018-03-08T11:15:04.291Z,23.30
2018-03-08T11:17:33.071Z,25.30
2018-03-08T11:20:01.874Z,24.17
2018-03-08T11:22:31.402Z,22.77
2018-03-08T11:25:00.315Z,14.70
2018-03-08T11:27:30.175Z,13.70
2018-03-08T11:29:59.066Z,18.23
2018-03-08T11:32:27.883Z,34.70
2018-03-08T11:34:56.856Z,39.23
2018-03-08T11:37:26.084Z,31.83
2018-03-08T11:39:54.837Z,21.83
2018-03-08T11:42:24.765Z,19.47
2018-03-08T11:44:54.148Z,19.73
2018-03-08T11:47:24.672Z,17.97
2018-03-08T11:49:52.453Z,17.23
2018-03-08T11:52:22.116Z,15.13
2018-03-08T11:54:51.913Z,14.80
2018-03-08T11:57:21.000Z,17.17
2018-03-08T11:59:49.921Z,20.43
2018-03-08T12:02:18.918Z,29.63
2018-03-08T12:04:47.795Z,41.00
2018-03-08T12:07:16.722Z,44.67
2018-03-08T12:09:46.319Z,49.17
2018-03-08T12:12:15.142Z,48.87
2018-03-08T12:14:44.023Z,49.50
2018-03-08T12:17:12.843Z,55.43
2018-03-08T12:19:41.789Z,46.17
2018-03-08T12:22:11.193Z,29.33
2018-03-08T12:24:40.101Z,27.80
2018-03-08T12:27:10.079Z,22.67
2018-03-08T12:29:39.299Z,22.93
2018-03-08T12:32:08.962Z,22.97
2018-03-08T12:34:37.819Z,23.20
2018-03-08T12:37:06.647Z,20.90
2018-03-08T12:39:36.062Z,23.53
2018-03-08T12:42:04.847Z,27.93
2018-03-08T12:44:33.895Z,26.20
2018-03-08T12:47:03.707Z,20.73
2018-03-08T12:49:32.573Z,31.50
2018-03-08T12:52:01.470Z,28.57
2018-03-08T12:54:31.103Z,18.77
2018-03-08T12:57:00.716Z,11.37
2018-03-08T12:59:29.576Z,12.80
2018-03-08T13:01:59.206Z,15.00
2018-03-08T13:04:28.127Z,15.17
2018-03-08T13:06:57.139Z,14.87
2018-03-08T13:09:25.901Z,14.73
2018-03-08T13:11:55.514Z,17.07
2018-03-08T13:14:24.389Z,17.93
2018-03-08T13:16:53.291Z,15.27
2018-03-08T13:19:22.233Z,14.47
2018-03-08T13:21:51.241Z,13.37
2018-03-08T13:24:20.247Z,11.73
2018-03-08T13:26:49.107Z,12.73
2018-03-08T13:29:18.157Z,15.23
2018-03-08T13:31:47.011Z,15.77
2018-03-08T13:34:16.177Z,15.70
2018-03-08T13:36:44.995Z,14.87
2018-03-08T13:39:13.830Z,14.67
2018-03-08T13:41:42.876Z,14.17
2018-03-08T13:44:11.776Z,15.07
2018-03-08T13:46:41.676Z,16.07
2018-03-08T13:49:22.949Z,15.57
2018-03-08T13:51:51.824Z,18.60
2018-03-08T13:54:20.967Z,20.07
2018-03-08T13:56:49.939Z,22.33
2018-03-08T13:59:19.587Z,24.53
2018-03-08T14:01:48.402Z,27.37
2018-03-08T14:04:17.234Z,24.33
2018-03-08T14:06:46.214Z,24.77
2018-03-08T14:09:15.919Z,22.30
2018-03-08T14:11:45.099Z,20.73
2018-03-08T14:14:14.986Z,18.93
2018-03-08T14:16:43.973Z,16.27
2018-03-08T14:19:13.031Z,15.23
2018-03-08T14:21:42.693Z,16.53
2018-03-08T14:24:11.502Z,18.40
2018-03-08T14:26:41.439Z,18.60
2018-03-08T14:29:10.333Z,18.53
2018-03-08T14:31:39.298Z,19.07
2018-03-08T14:34:08.639Z,19.53
2018-03-08T14:36:37.764Z,22.73
2018-03-08T14:39:08.026Z,23.60
2018-03-08T14:41:36.797Z,21.13
2018-03-08T14:44:06.645Z,22.83
2018-03-08T14:46:35.905Z,36.77
2018-03-08T14:49:04.830Z,32.07
2018-03-08T14:51:33.605Z,56.33
2018-03-08T14:54:03.272Z,43.43
2018-03-08T14:56:32.140Z,31.87
2018-03-08T14:59:01.422Z,31.97
2018-03-08T15:01:31.159Z,32.20
2018-03-08T15:03:59.971Z,30.13
2018-03-08T15:06:28.839Z,30.17
2018-03-08T15:08:57.734Z,25.57
2018-03-08T15:11:27.451Z,30.90
2018-03-08T15:13:56.392Z,30.80
2018-03-08T15:16:25.395Z,37.70
2018-03-08T15:18:55.274Z,34.60
2018-03-08T15:21:24.246Z,45.97
2018-03-08T15:23:53.404Z,40.43
2018-03-08T15:26:22.544Z,31.57
2018-03-08T15:28:52.335Z,37.50
2018-03-08T15:31:21.068Z,34.00
2018-03-08T15:33:50.039Z,36.57
2018-03-08T15:36:19.619Z,34.90
2018-03-08T15:38:48.477Z,36.80
2018-03-08T15:41:17.456Z,36.33
2018-03-08T15:43:46.269Z,40.63
2018-03-08T15:46:15.366Z,45.37
2018-03-08T15:48:46.405Z,49.57
2018-03-08T15:51:15.545Z,32.50
2018-03-08T15:53:44.501Z,34.47
2018-03-08T15:56:13.453Z,27.93
2018-03-08T15:58:42.231Z,29.70
2018-03-08T16:01:11.356Z,35.93
2018-03-08T16:03:40.483Z,28.77
2018-03-08T16:06:10.079Z,23.20
2018-03-08T16:08:50.850Z,19.57
2018-03-08T16:11:20.844Z,17.40
2018-03-08T16:13:50.523Z,17.37
2018-03-08T16:16:19.458Z,17.43
2018-03-08T16:18:48.387Z,17.43
2018-03-08T16:21:17.461Z,19.70
2018-03-08T16:23:46.254Z,21.33
2018-03-08T16:26:15.125Z,20.47
2018-03-08T16:28:45.044Z,17.73
2018-03-08T16:31:14.775Z,16.23
2018-03-08T16:33:43.624Z,15.07
2018-03-08T16:36:12.434Z,16.80
2018-03-08T16:38:42.037Z,18.47
2018-03-08T16:41:11.712Z,17.87
2018-03-08T16:43:40.545Z,18.03
2018-03-08T16:46:10.116Z,17.43
2018-03-08T16:48:39.756Z,33.60
2018-03-08T16:51:09.367Z,63.27
2018-03-08T16:53:38.956Z,82.90
2018-03-08T16:56:08.581Z,85.77
2018-03-08T16:58:38.182Z,92.87
2018-03-08T17:01:07.849Z,90.90
2018-03-08T17:03:36.666Z,97.67
2018-03-08T17:06:05.550Z,91.73
2018-03-08T17:08:34.669Z,102.20
2018-03-08T17:11:03.887Z,109.53
2018-03-08T17:13:32.681Z,115.70
2018-03-08T17:16:02.623Z,120.57
2018-03-08T17:18:31.489Z,124.17
2018-03-08T17:21:01.275Z,125.07
2018-03-08T17:23:30.976Z,126.03
2018-03-08T17:25:59.960Z,118.80
2018-03-08T17:28:29.393Z,123.63
2018-03-08T17:30:58.883Z,105.67
2018-03-08T17:33:28.513Z,97.67
2018-03-08T17:35:58.851Z,87.90
2018-03-08T17:38:28.440Z,86.43
2018-03-08T17:40:58.192Z,88.50
2018-03-08T17:43:27.409Z,91.60
2018-03-08T17:45:57.575Z,96.83
2018-03-08T17:48:28.046Z,109.07
2018-03-08T17:50:57.531Z,107.93
2018-03-08T17:53:26.976Z,111.10
2018-03-08T17:55:56.252Z,116.77
2018-03-08T17:58:26.417Z,112.90
2018-03-08T18:00:56.606Z,110.57
2018-03-08T18:03:25.914Z,109.90
2018-03-08T18:05:55.235Z,113.17
2018-03-08T18:08:24.635Z,106.53
2018-03-08T18:10:53.917Z,96.30
2018-03-08T18:13:23.283Z,91.00
2018-03-08T18:15:53.763Z,89.87
2018-03-08T18:18:23.005Z,87.43
2018-03-08T18:20:52.216Z,80.93
2018-03-08T18:23:21.809Z,78.47
2018-03-08T18:25:50.954Z,70.97
2018-03-08T18:28:20.164Z,61.03
2018-03-08T18:30:49.458Z,47.90
2018-03-08T18:33:18.903Z,46.70
2018-03-08T18:35:48.171Z,41.03
2018-03-08T18:38:17.445Z,41.33
2018-03-08T18:40:46.678Z,36.43
2018-03-08T18:43:16.190Z,35.50
2018-03-08T18:45:46.396Z,31.60
2018-03-08T18:48:16.362Z,29.43
2018-03-08T18:50:45.562Z,29.20
2018-03-08T18:53:14.745Z,29.50
2018-03-08T18:55:44.130Z,27.40
2018-03-08T18:58:24.940Z,25.93
2018-03-08T19:00:54.135Z,22.07
2018-03-08T19:03:23.384Z,21.50
2018-03-08T19:05:53.483Z,19.67
2018-03-08T19:08:22.869Z,18.40
2018-03-08T19:10:52.225Z,27.50
2018-03-08T19:13:22.213Z,31.80
2018-03-08T19:15:51.408Z,26.57
2018-03-08T19:18:20.919Z,24.10
2018-03-08T19:20:50.207Z,25.50
2018-03-08T19:23:19.458Z,20.87
2018-03-08T19:25:48.964Z,29.67
2018-03-08T19:28:18.282Z,37.13
2018-03-08T19:30:47.956Z,90.30
2018-03-08T19:33:17.260Z,50.47
2018-03-08T19:35:47.311Z,49.07
2018-03-08T19:38:16.605Z,51.30
2018-03-08T19:40:45.848Z,30.50
2018-03-08T19:43:17.144Z,46.67
2018-03-08T19:45:46.411Z,45.60
2018-03-08T19:48:15.773Z,53.03
2018-03-08T19:50:45.213Z,58.77
2018-03-08T19:53:14.534Z,81.57
2018-03-08T19:55:44.768Z,92.63
2018-03-08T19:58:14.918Z,90.80
2018-03-08T20:00:44.115Z,108.20
2018-03-08T20:03:14.534Z,97.20
2018-03-08T20:05:44.841Z,98.77
2018-03-08T20:08:14.167Z,104.70
2018-03-08T20:10:43.360Z,99.17
2018-03-08T20:13:12.677Z,75.17
2018-03-08T20:15:42.710Z,65.90
2018-03-08T20:18:11.946Z,46.77
2018-03-08T20:20:41.310Z,46.90
2018-03-08T20:23:11.381Z,45.90
2018-03-08T20:38:41.743Z,51.30
2018-03-08T20:41:10.820Z,61.23
2018-03-08T20:43:40.163Z,65.47
2018-03-08T20:46:09.018Z,61.43
2018-03-08T20:48:39.118Z,60.40
2018-03-08T20:51:08.203Z,67.73
2018-03-08T20:53:37.078Z,86.40
2018-03-08T20:56:06.050Z,99.73
2018-03-08T20:58:34.960Z,108.23
2018-03-08T21:01:04.807Z,109.00
2018-03-08T21:03:34.003Z,139.00
2018-03-08T21:06:02.844Z,106.77
2018-03-08T21:08:31.754Z,98.07
2018-03-08T21:11:00.779Z,85.23
2018-03-08T21:13:29.670Z,79.20
2018-03-08T21:15:59.330Z,89.93
2018-03-08T21:18:28.303Z,106.63
2018-03-08T21:20:57.271Z,114.73
2018-03-08T21:23:26.954Z,121.00
2018-03-08T21:25:56.073Z,124.80
2018-03-08T21:28:25.683Z,122.37
2018-03-08T21:30:54.675Z,116.20
2018-03-08T21:33:24.279Z,101.30
2018-03-08T21:35:53.657Z,93.27
2018-03-08T21:38:22.480Z,90.80
2018-03-08T21:40:51.358Z,99.50
2018-03-08T21:43:21.530Z,108.23
2018-03-08T21:45:50.287Z,119.27
2018-03-08T21:48:19.885Z,120.50
2018-03-08T21:50:48.758Z,101.93
2018-03-08T21:53:17.575Z,75.00
2018-03-08T21:55:46.626Z,63.07
2018-03-08T21:58:16.466Z,48.73
2018-03-08T22:00:46.112Z,44.50
2018-03-08T22:03:15.231Z,44.30
2018-03-08T22:05:45.054Z,43.93
2018-03-08T22:08:13.865Z,39.80
2018-03-08T22:10:42.955Z,39.93
2018-03-08T22:13:12.359Z,38.23
2018-03-08T22:15:41.226Z,39.57
2018-03-08T22:18:10.083Z,40.70
2018-03-08T22:20:39.797Z,40.47
2018-03-08T22:23:08.656Z,42.00
2018-03-08T22:25:37.540Z,41.60
2018-03-08T22:28:06.435Z,42.20
2018-03-08T22:30:36.091Z,42.33
2018-03-08T22:33:05.278Z,41.03
2018-03-08T22:35:35.413Z,40.60
2018-03-08T22:38:04.270Z,40.77
2018-03-08T22:40:33.146Z,41.27
2018-03-08T22:43:02.826Z,39.73
2018-03-08T22:45:32.521Z,37.80
2018-03-08T22:48:01.378Z,37.10
2018-03-08T22:50:30.328Z,36.57
2018-03-08T22:53:00.136Z,36.63
2018-03-08T22:55:28.974Z,35.93
2018-03-08T22:57:58.406Z,34.20
2018-03-08T23:00:27.227Z,33.30
2018-03-08T23:03:01.636Z,33.70
2018-03-08T23:05:31.453Z,34.47
2018-03-08T23:08:00.242Z,34.27
2018-03-08T23:10:29.078Z,36.40
2018-03-08T23:12:58.046Z,36.00
2018-03-08T23:15:27.776Z,36.80
2018-03-08T23:17:57.693Z,39.77
2018-03-08T23:20:26.658Z,43.53
2018-03-08T23:22:55.495Z,49.20
2018-03-08T23:25:24.366Z,50.03
2018-03-08T23:27:54.072Z,47.67
2018-03-08T23:30:24.193Z,46.80
2018-03-08T23:32:53.020Z,41.07
2018-03-08T23:35:21.875Z,38.43
2018-03-08T23:37:50.668Z,37.07
2018-03-08T23:40:19.472Z,48.63
2018-03-08T23:42:49.120Z,50.50
2018-03-08T23:45:18.115Z,52.03
2018-03-08T23:47:47.101Z,40.63
2018-03-08T23:50:15.937Z,30.67
2018-03-08T23:52:44.834Z,20.50
2018-03-08T23:55:13.643Z,15.77
2018-03-08T23:57:42.861Z,13.53
